Time;durP1;ratioP1;P1;durP2;ratioP2;P2;SDS_P1;SDS_P2;PMS_P1;PMS_P2;Temp;Humidity;BMP_temperature;BMP_pressure;BME280_temperature;BME280_humidity;BME280_pressure;Samples;Min_cycle;Max_cycle;Signal;HPM_P1;HPM_P2
2022/06/25 00:02:08;;;;;;;;;;;;;;;;;;5032616;28;20340;-77
2022/06/25 00:07:18;;;;;;;;;;;;;;;;;;5033182;28;20399;-77
2022/06/25 00:09:44;;;;;;;;;;;;;;;;;;5031720;28;19913;-77
2022/06/25 00:14:55;;;;;;;;;;;;;;;;;;5039001;28;20000;-78
2022/06/25 00:17:21;;;;;;;;;;;;;;;;;;5037276;28;19953;-77
2022/06/25 00:19:47;;;;;;;;;;;;;;;;;;5038117;28;19921;-78
2022/06/25 00:22:12;;;;;;;;;;;;;;;;;;5038472;28;19909;-78
2022/06/25 00:24:38;;;;;;;;;;;;;;;;;;5037860;28;19917;-78
2022/06/25 00:27:04;;;;;;;;;;;;;;;;;;5036055;28;19909;-78
2022/06/25 00:29:30;;;;;;;;;;;;;;;;;;5035558;28;19909;-78
2022/06/25 00:31:56;;;;;;;;;;;;;;;;;;5036489;28;19920;-78
2022/06/25 00:34:22;;;;;;;;;;;;;;;;;;5037162;28;20403;-78
2022/06/25 00:36:48;;;;;;;;;;;;;;;;;;5037272;28;19984;-78
2022/06/25 00:39:14;;;;;;;;;;;;;;;;;;5035382;28;19913;-78
2022/06/25 00:41:39;;;;;;;;;;;;;;;;;;5036142;28;19914;-78
2022/06/25 00:44:05;;;;;;;;;;;;;;;;;;5032967;28;20293;-78
2022/06/25 00:46:31;;;;;;;;;;;;;;;;;;5030834;28;19952;-78
2022/06/25 00:48:57;;;;;;;;;;;;;;;;;;5030124;28;20385;-78
2022/06/25 00:51:23;;;;;;;;;;;;;;;;;;5030928;28;19909;-78
2022/06/25 00:53:49;;;;;;;;;;;;;;;;;;5030604;28;20369;-77
2022/06/25 00:56:15;;;;;;;;;;;;;;;;;;5030757;28;19917;-78
2022/06/25 00:58:41;;;;;;;;;;;;;;;;;;5029770;28;19966;-78
2022/06/25 01:01:10;;;;;;;;;;;;;;;;;;5029251;28;19917;-78
2022/06/25 01:03:35;;;;;;;;;;;;;;;;;;5030143;28;19920;-78
2022/06/25 01:06:01;;;;;;;;;;;;;;;;;;5031016;28;19909;-78
2022/06/25 01:08:27;;;;;;;;;;;;;;;;;;5030818;28;20427;-78
2022/06/25 01:10:53;;;;;;;;;;;;;;;;;;5031412;28;20006;-78
2022/06/25 01:13:21;;;;;;;;;;;;;;;;;;5031554;28;20395;-79
2022/06/25 01:15:47;;;;;;;;;;;;;;;;;;5031673;28;20336;-79
2022/06/25 01:18:13;;;;;;;;;;;;;;;;;;5031986;28;19909;-79
2022/06/25 01:20:39;;;;;;;;;;;;;;;;;;5031008;28;20103;-79
2022/06/25 01:23:04;;;;;;;;;;;;;;;;;;5031706;28;20293;-79
2022/06/25 01:25:30;;;;;;;;;;;;;;;;;;5031496;28;19951;-78
2022/06/25 01:27:56;;;;;;;;;;;;;;;;;;5032043;28;20262;-78
2022/06/25 01:30:22;;;;;;;;;;;;;;;;;;5031544;28;19913;-78
2022/06/25 01:32:48;;;;;;;;;;;;;;;;;;5031570;28;20373;-79
2022/06/25 01:35:14;;;;;;;;;;;;;;;;;;5031711;28;19909;-79
2022/06/25 01:37:40;;;;;;;;;;;;;;;;;;5031421;28;19920;-79
2022/06/25 01:40:06;;;;;;;;;;;;;;;;;;5029702;28;19909;-79
2022/06/25 01:45:16;;;;;;;;;;;;;;;;;;5031691;28;19920;-79
2022/06/25 01:47:42;;;;;;;;;;;;;;;;;;5031399;28;19917;-79
2022/06/25 01:50:08;;;;;;;;;;;;;;;;;;5030908;28;19932;-79
2022/06/25 01:52:34;;;;;;;;;;;;;;;;;;5030359;28;19991;-79
2022/06/25 01:55:00;;;;;;;;;;;;;;;;;;5030034;28;19939;-79
2022/06/25 01:57:26;;;;;;;;;;;;;;;;;;5029989;28;19924;-79
2022/06/25 01:59:52;;;;;;;;;;;;;;;;;;5029520;28;20223;-79
2022/06/25 02:02:18;;;;;;;;;;;;;;;;;;5031513;28;19919;-78
2022/06/25 02:04:43;;;;;;;;;;;;;;;;;;5031486;28;20003;-79
2022/06/25 02:07:09;;;;;;;;;;;;;;;;;;5031747;28;19964;-80
2022/06/25 02:09:35;;;;;;;;;;;;;;;;;;5029493;28;19918;-79
2022/06/25 02:12:01;;;;;;;;;;;;;;;;;;5034178;28;20005;-80
2022/06/25 02:14:27;;;;;;;;;;;;;;;;;;5035771;28;19935;-80
2022/06/25 02:16:53;;;;;;;;;;;;;;;;;;5039158;28;19924;-79
2022/06/25 02:19:19;;;;;;;;;;;;;;;;;;5036973;28;19909;-79
2022/06/25 02:21:45;;;;;;;;;;;;;;;;;;5038133;28;19986;-80
2022/06/25 02:24:10;;;;;;;;;;;;;;;;;;5036920;28;20007;-80
2022/06/25 02:26:36;;;;;;;;;;;;;;;;;;5037766;28;19913;-80
2022/06/25 02:29:02;;;;;;;;;;;;;;;;;;5036704;28;19909;-79
2022/06/25 02:31:28;;;;;;;;;;;;;;;;;;5035174;28;19909;-80
2022/06/25 02:33:54;;;;;;;;;;;;;;;;;;5035138;28;19909;-80
2022/06/25 02:36:20;;;;;;;;;;;;;;;;;;5037551;28;19917;-79
2022/06/25 02:38:46;;;;;;;;;;;;;;;;;;5039280;28;20277;-79
2022/06/25 02:41:12;;;;;;;;;;;;;;;;;;5039530;28;19913;-80
2022/06/25 02:43:38;;;;;;;;;;;;;;;;;;5039018;28;19935;-80
2022/06/25 02:46:03;;;;;;;;;;;;;;;;;;5038234;28;19960;-80
2022/06/25 02:48:29;;;;;;;;;;;;;;;;;;5038245;28;19917;-80
2022/06/25 02:50:55;;;;;;;;;;;;;;;;;;5037382;28;19956;-80
2022/06/25 02:53:21;;;;;;;;;;;;;;;;;;5038587;28;19972;-80
2022/06/25 03:01:16;;;;;;;;;;;;;;;;;;5038059;28;19955;-79
2022/06/25 03:03:42;;;;;;;;;;;;;;;;;;5036723;28;19913;-79
2022/06/25 03:06:08;;;;;;;;;;;;;;;;;;5037307;28;20333;-79
2022/06/25 03:08:35;;;;;;;;;;;;;;;;;;5035574;28;19962;-79
2022/06/25 03:11:01;;;;;;;;;;;;;;;;;;5037106;28;19909;-79
2022/06/25 03:13:29;;;;;;;;;;;;;;;;;;5036567;28;19919;-79
2022/06/25 03:15:55;;;;;;;;;;;;;;;;;;5037181;28;19957;-79
2022/06/25 03:18:20;;;;;;;;;;;;;;;;;;5037460;28;20374;-78
2022/06/25 03:20:46;;;;;;;;;;;;;;;;;;5037702;28;20016;-78
2022/06/25 03:23:12;;;;;;;;;;;;;;;;;;5038545;28;20004;-78
2022/06/25 03:25:38;;;;;;;;;;;;;;;;;;5038776;28;19914;-78
2022/06/25 03:28:04;;;;;;;;;;;;;;;;;;5036271;28;20262;-78
2022/06/25 03:30:30;;;;;;;;;;;;;;;;;;5034982;28;19909;-78
2022/06/25 03:32:56;;;;;;;;;;;;;;;;;;5036010;28;19920;-80
2022/06/25 03:35:22;;;;;;;;;;;;;;;;;;5036273;28;19909;-79
2022/06/25 03:37:48;;;;;;;;;;;;;;;;;;5036560;28;19913;-79
2022/06/25 03:40:13;;;;;;;;;;;;;;;;;;5035000;28;19932;-79
2022/06/25 03:42:39;;;;;;;;;;;;;;;;;;5034643;28;20368;-79
2022/06/25 03:45:05;;;;;;;;;;;;;;;;;;5036257;28;20339;-79
2022/06/25 03:47:31;;;;;;;;;;;;;;;;;;5034331;28;19964;-79
2022/06/25 03:49:57;;;;;;;;;;;;;;;;;;5033561;28;19913;-79
2022/06/25 03:52:23;;;;;;;;;;;;;;;;;;5033913;28;19963;-80
2022/06/25 03:54:51;;;;;;;;;;;;;;;;;;5034736;28;20285;-79
2022/06/25 03:57:16;;;;;;;;;;;;;;;;;;5033801;28;19963;-79
2022/06/25 03:59:42;;;;;;;;;;;;;;;;;;5033856;28;20429;-79
2022/06/25 04:02:08;;;;;;;;;;;;;;;;;;5034787;28;19920;-79
2022/06/25 04:04:34;;;;;;;;;;;;;;;;;;5034780;28;20455;-78
2022/06/25 04:07:00;;;;;;;;;;;;;;;;;;5035186;28;19944;-79
2022/06/25 04:09:26;;;;;;;;;;;;;;;;;;5032688;28;19981;-79
2022/06/25 04:11:52;;;;;;;;;;;;;;;;;;5034075;28;19963;-80
2022/06/25 04:14:17;;;;;;;;;;;;;;;;;;5034011;28;19920;-79
2022/06/25 04:16:43;;;;;;;;;;;;;;;;;;5034844;28;19921;-78
2022/06/25 04:19:09;;;;;;;;;;;;;;;;;;5033972;28;19915;-79
2022/06/25 04:21:35;;;;;;;;;;;;;;;;;;5035566;28;19916;-79
2022/06/25 04:24:01;;;;;;;;;;;;;;;;;;5033897;28;19970;-79
2022/06/25 04:26:27;;;;;;;;;;;;;;;;;;5034796;28;19913;-78
2022/06/25 04:29:05;;;;;;;;;;;;;;;;;;5034573;28;19916;-79
2022/06/25 04:31:31;;;;;;;;;;;;;;;;;;5034744;28;19999;-78
2022/06/25 04:33:57;;;;;;;;;;;;;;;;;;5034503;28;20240;-78
2022/06/25 04:36:23;;;;;;;;;;;;;;;;;;5034470;28;20024;-79
2022/06/25 04:38:49;;;;;;;;;;;;;;;;;;5031662;28;19913;-79
2022/06/25 04:41:15;;;;;;;;;;;;;;;;;;5034541;28;20269;-79
2022/06/25 04:43:40;;;;;;;;;;;;;;;;;;5034505;28;20029;-79
2022/06/25 04:46:06;;;;;;;;;;;;;;;;;;5033336;28;20368;-79
2022/06/25 04:48:32;;;;;;;;;;;;;;;;;;5033625;28;19932;-79
2022/06/25 04:50:58;;;;;;;;;;;;;;;;;;5034105;28;19964;-79
2022/06/25 04:53:24;;;;;;;;;;;;;;;;;;5034678;28;19972;-79
2022/06/25 04:55:50;;;;;;;;;;;;;;;;;;5033221;28;19986;-78
2022/06/25 04:58:16;;;;;;;;;;;;;;;;;;5033983;28;19909;-79
2022/06/25 05:00:42;;;;;;;;;;;;;;;;;;5033138;28;19909;-80
2022/06/25 05:03:08;;;;;;;;;;;;;;;;;;5034181;28;19909;-79
2022/06/25 05:05:33;;;;;;;;;;;;;;;;;;5032420;28;19917;-79
2022/06/25 05:07:59;;;;;;;;;;;;;;;;;;5033558;28;19909;-80
2022/06/25 05:10:26;;;;;;;;;;;;;;;;;;5028793;28;19947;-78
2022/06/25 05:15:36;;;;;;;;;;;;;;;;;;5032100;28;19956;-79
2022/06/25 05:18:02;;;;;;;;;;;;;;;;;;5031039;28;19957;-79
2022/06/25 05:20:28;;;;;;;;;;;;;;;;;;5029211;28;20034;-79
2022/06/25 05:22:54;;;;;;;;;;;;;;;;;;5030639;28;19921;-78
2022/06/25 05:25:20;;;;;;;;;;;;;;;;;;5030217;28;19910;-79
2022/06/25 05:27:45;;;;;;;;;;;;;;;;;;5031058;28;20377;-78
2022/06/25 05:30:11;;;;;;;;;;;;;;;;;;5030043;28;20015;-79
2022/06/25 05:32:37;;;;;;;;;;;;;;;;;;5032723;28;19917;-79
2022/06/25 05:35:04;;;;;;;;;;;;;;;;;;5030568;28;19909;-78
2022/06/25 05:37:30;;;;;;;;;;;;;;;;;;5031104;28;20215;-79
2022/06/25 05:39:55;;;;;;;;;;;;;;;;;;5030543;28;19917;-79
2022/06/25 05:42:21;;;;;;;;;;;;;;;;;;5033345;28;19937;-79
2022/06/25 05:44:47;;;;;;;;;;;;;;;;;;5025142;28;20399;-79
2022/06/25 05:47:13;;;;;;;;;;;;;;;;;;5026960;28;19917;-79
2022/06/25 05:49:39;;;;;;;;;;;;;;;;;;5018690;28;20295;-79
2022/06/25 05:52:05;;;;;;;;;;;;;;;;;;5028984;28;19924;-81
2022/06/25 05:54:31;;;;;;;;;;;;;;;;;;5031551;28;19921;-80
2022/06/25 05:56:57;;;;;;;;;;;;;;;;;;5033151;28;19917;-80
2022/06/25 05:59:23;;;;;;;;;;;;;;;;;;5032426;28;19996;-79
2022/06/25 06:01:49;;;;;;;;;;;;;;;;;;5034105;28;19916;-79
2022/06/25 06:04:14;;;;;;;;;;;;;;;;;;5051306;28;19929;-81
2022/06/25 06:06:40;;;;;;;;;;;;;;;;;;5053164;28;19920;-81
2022/06/25 06:09:06;;;;;;;;;;;;;;;;;;5052516;28;20043;-81
2022/06/25 06:11:32;;;;;;;;;;;;;;;;;;5053142;28;19913;-79
2022/06/25 06:13:58;;;;;;;;;;;;;;;;;;5045201;28;19909;-82
2022/06/25 06:16:24;;;;;;;;;;;;;;;;;;5040309;28;20364;-82
2022/06/25 06:18:50;;;;;;;;;;;;;;;;;;5034056;28;19914;-81
2022/06/25 06:21:16;;;;;;;;;;;;;;;;;;5022513;28;20417;-82
2022/06/25 06:23:42;;;;;;;;;;;;;;;;;;5016978;28;19916;-83
2022/06/25 06:26:08;;;;;;;;;;;;;;;;;;5021556;28;20008;-84
2022/06/25 06:28:33;;;;;;;;;;;;;;;;;;5044084;28;19970;-83
2022/06/25 06:30:59;;;;;;;;;;;;;;;;;;5040044;28;19920;-82
2022/06/25 06:33:25;;;;;;;;;;;;;;;;;;5031883;28;19937;-82
2022/06/25 06:35:51;;;;;;;;;;;;;;;;;;5030733;28;20369;-80
2022/06/25 06:38:17;;;;;;;;;;;;;;;;;;5034968;28;19932;-82
2022/06/25 06:40:43;;;;;;;;;;;;;;;;;;5026419;28;19914;-80
2022/06/25 06:43:09;;;;;;;;;;;;;;;;;;5030860;28;20404;-80
2022/06/25 06:45:35;;;;;;;;;;;;;;;;;;5040739;28;19913;-81
2022/06/25 06:48:01;;;;;;;;;;;;;;;;;;5042242;28;19921;-81
2022/06/25 06:50:27;;;;;;;;;;;;;;;;;;5032492;28;20377;-82
2022/06/25 06:52:53;;;;;;;;;;;;;;;;;;5034863;28;19959;-82
2022/06/25 06:55:19;;;;;;;;;;;;;;;;;;5041059;28;20364;-81
2022/06/25 06:57:44;;;;;;;;;;;;;;;;;;5036035;28;19959;-81
2022/06/25 07:00:10;;;;;;;;;;;;;;;;;;5027026;28;20285;-79
2022/06/25 07:02:36;;;;;;;;;;;;;;;;;;5029492;28;19920;-82
2022/06/25 07:05:02;;;;;;;;;;;;;;;;;;5027593;28;19985;-81
2022/06/25 07:07:28;;;;;;;;;;;;;;;;;;5030403;28;19975;-82
2022/06/25 07:09:54;;;;;;;;;;;;;;;;;;5030378;28;19962;-81
2022/06/25 07:12:20;;;;;;;;;;;;;;;;;;5035409;28;19909;-81
2022/06/25 07:14:46;;;;;;;;;;;;;;;;;;5032010;28;19921;-83
2022/06/25 07:17:12;;;;;;;;;;;;;;;;;;5034801;28;19917;-82
2022/06/25 07:19:37;;;;;;;;;;;;;;;;;;5032726;28;19917;-81
2022/06/25 07:22:03;;;;;;;;;;;;;;;;;;5035525;28;19909;-81
2022/06/25 07:24:29;;;;;;;;;;;;;;;;;;5031693;28;20299;-79
2022/06/25 07:26:55;;;;;;;;;;;;;;;;;;5027819;28;19925;-81
2022/06/25 07:29:21;;;;;;;;;;;;;;;;;;5036348;28;19960;-80
2022/06/25 07:31:48;;;;;;;;;;;;;;;;;;5032684;28;19921;-80
2022/06/25 07:34:14;;;;;;;;;;;;;;;;;;5025046;28;19996;-80
2022/06/25 07:36:40;;;;;;;;;;;;;;;;;;5026781;28;20021;-81
2022/06/25 07:39:06;;;;;;;;;;;;;;;;;;5027105;28;20396;-80
2022/06/25 07:41:32;;;;;;;;;;;;;;;;;;5022790;28;20016;-81
2022/06/25 07:43:58;;;;;;;;;;;;;;;;;;5019525;28;20397;-81
2022/06/25 07:46:24;;;;;;;;;;;;;;;;;;5026927;28;19989;-80
2022/06/25 07:48:50;;;;;;;;;;;;;;;;;;5033762;28;19913;-80
2022/06/25 07:54:00;;;;;;;;;;;;;;;;;;5025464;28;19928;-80
2022/06/25 07:56:26;;;;;;;;;;;;;;;;;;5030397;28;19913;-80
2022/06/25 07:58:52;;;;;;;;;;;;;;;;;;5033235;28;19916;-80
2022/06/25 08:01:18;;;;;;;;;;;;;;;;;;5028955;28;19913;-80
2022/06/25 08:03:44;;;;;;;;;;;;;;;;;;5027662;28;19920;-80
2022/06/25 08:06:10;;;;;;;;;;;;;;;;;;5025302;28;19921;-80
2022/06/25 08:08:36;;;;;;;;;;;;;;;;;;5033175;28;19909;-80
2022/06/25 08:11:03;;;;;;;;;;;;;;;;;;5028695;28;20443;-80
2022/06/25 08:13:29;;;;;;;;;;;;;;;;;;5026423;28;19965;-80
2022/06/25 08:15:54;;;;;;;;;;;;;;;;;;5020813;28;20356;-80
2022/06/25 08:18:20;;;;;;;;;;;;;;;;;;5026072;28;19913;-80
2022/06/25 08:20:46;;;;;;;;;;;;;;;;;;5018545;28;19956;-82
2022/06/25 08:23:12;;;;;;;;;;;;;;;;;;5030979;28;20004;-81
2022/06/25 08:25:38;;;;;;;;;;;;;;;;;;5027251;28;20453;-81
2022/06/25 08:28:04;;;;;;;;;;;;;;;;;;5025307;28;19920;-81
2022/06/25 08:30:30;;;;;;;;;;;;;;;;;;5030906;28;20448;-81
2022/06/25 08:32:56;;;;;;;;;;;;;;;;;;5031726;28;19920;-81
2022/06/25 08:35:22;;;;;;;;;;;;;;;;;;5014057;28;19920;-81
2022/06/25 08:37:48;;;;;;;;;;;;;;;;;;5013465;28;20384;-81
2022/06/25 08:40:13;;;;;;;;;;;;;;;;;;5020365;28;20277;-81
2022/06/25 08:42:39;;;;;;;;;;;;;;;;;;5029235;28;20289;-81
2022/06/25 08:45:05;;;;;;;;;;;;;;;;;;5028594;28;19924;-81
2022/06/25 08:47:31;;;;;;;;;;;;;;;;;;5024539;28;19971;-81
2022/06/25 08:49:57;;;;;;;;;;;;;;;;;;5031325;28;20024;-80
2022/06/25 08:52:23;;;;;;;;;;;;;;;;;;5033772;28;20000;-81
2022/06/25 08:54:49;;;;;;;;;;;;;;;;;;5031774;28;20389;-80
2022/06/25 08:57:15;;;;;;;;;;;;;;;;;;5028744;28;19922;-80
2022/06/25 08:59:40;;;;;;;;;;;;;;;;;;5029730;28;19909;-81
2022/06/25 09:02:06;;;;;;;;;;;;;;;;;;5034158;28;19992;-81
2022/06/25 09:04:32;;;;;;;;;;;;;;;;;;5032061;28;20357;-80
2022/06/25 09:06:58;;;;;;;;;;;;;;;;;;5031824;28;19913;-80
2022/06/25 09:09:24;;;;;;;;;;;;;;;;;;5028974;28;20005;-80
2022/06/25 09:11:50;;;;;;;;;;;;;;;;;;5033183;28;19940;-80
2022/06/25 09:14:16;;;;;;;;;;;;;;;;;;5034300;28;19915;-81
2022/06/25 09:16:41;;;;;;;;;;;;;;;;;;5028182;28;19928;-80
2022/06/25 09:19:08;;;;;;;;;;;;;;;;;;5027677;28;20008;-80
2022/06/25 09:21:34;;;;;;;;;;;;;;;;;;5032695;28;19909;-80
2022/06/25 09:24:00;;;;;;;;;;;;;;;;;;5026793;28;20039;-80
2022/06/25 09:26:26;;;;;;;;;;;;;;;;;;5021903;28;19913;-80
2022/06/25 09:28:52;;;;;;;;;;;;;;;;;;5030243;28;19920;-81
2022/06/25 09:31:18;;;;;;;;;;;;;;;;;;5031541;28;19909;-83
2022/06/25 09:33:44;;;;;;;;;;;;;;;;;;5031503;28;19955;-81
2022/06/25 09:36:10;;;;;;;;;;;;;;;;;;5032163;28;19909;-82
2022/06/25 09:38:36;;;;;;;;;;;;;;;;;;5030242;28;19917;-81
2022/06/25 09:41:02;;;;;;;;;;;;;;;;;;5032703;28;19913;-81
2022/06/25 09:43:28;;;;;;;;;;;;;;;;;;5017486;28;19956;-80
2022/06/25 09:45:54;;;;;;;;;;;;;;;;;;5035422;28;20381;-80
2022/06/25 09:48:20;;;;;;;;;;;;;;;;;;5035232;28;19917;-82
2022/06/25 09:50:45;;;;;;;;;;;;;;;;;;5033458;28;19917;-82
2022/06/25 09:53:11;;;;;;;;;;;;;;;;;;5035810;28;19916;-82
2022/06/25 09:55:38;;;;;;;;;;;;;;;;;;5036057;28;19936;-82
2022/06/25 09:58:04;;;;;;;;;;;;;;;;;;5039134;28;19914;-81
2022/06/25 10:00:29;;;;;;;;;;;;;;;;;;5017688;28;19913;-82
2022/06/25 10:02:55;;;;;;;;;;;;;;;;;;5015655;28;19914;-80
2022/06/25 10:05:21;;;;;;;;;;;;;;;;;;5015286;28;19959;-80
2022/06/25 10:08:07;;;;;;;;;;;;;;;;;;5019570;28;19917;-81
2022/06/25 10:10:33;;;;;;;;;;;;;;;;;;5038232;28;19913;-82
2022/06/25 10:12:58;;;;;;;;;;;;;;;;;;5037936;28;19909;-81
2022/06/25 10:15:25;;;;;;;;;;;;;;;;;;5049042;28;19916;-82
2022/06/25 10:17:54;;;;;;;;;;;;;;;;;;5048723;28;19917;-81
2022/06/25 10:20:20;;;;;;;;;;;;;;;;;;5049179;28;19909;-82
2022/06/25 10:22:46;;;;;;;;;;;;;;;;;;5050912;28;19913;-81
2022/06/25 10:25:12;;;;;;;;;;;;;;;;;;5049350;28;19913;-82
2022/06/25 10:27:37;;;;;;;;;;;;;;;;;;5049833;28;20118;-82
2022/06/25 10:30:03;;;;;;;;;;;;;;;;;;5046021;28;19910;-81
2022/06/25 10:32:34;;;;;;;;;;;;;;;;;;5049594;28;19909;-82
2022/06/25 10:35:03;;;;;;;;;;;;;;;;;;5050822;28;19913;-81
2022/06/25 10:37:29;;;;;;;;;;;;;;;;;;5049494;28;19913;-81
2022/06/25 10:39:55;;;;;;;;;;;;;;;;;;5047575;28;19909;-81
2022/06/25 10:45:05;;;;;;;;;;;;;;;;;;5028426;28;19935;-81
2022/06/25 10:47:31;;;;;;;;;;;;;;;;;;5031662;28;20385;-81
2022/06/25 10:49:57;;;;;;;;;;;;;;;;;;5035704;28;19913;-81
2022/06/25 10:52:23;;;;;;;;;;;;;;;;;;5036163;28;20381;-81
2022/06/25 10:54:49;;;;;;;;;;;;;;;;;;5036033;28;19913;-81
2022/06/25 10:57:14;;;;;;;;;;;;;;;;;;5030691;28;20365;-81
2022/06/25 10:59:46;;;;;;;;;;;;;;;;;;5026499;28;19913;-81
2022/06/25 11:02:12;;;;;;;;;;;;;;;;;;5035769;28;19909;-81
2022/06/25 11:04:38;;;;;;;;;;;;;;;;;;5034578;28;19909;-82
2022/06/25 11:07:04;;;;;;;;;;;;;;;;;;5034800;28;19910;-80
2022/06/25 11:09:30;;;;;;;;;;;;;;;;;;5036650;28;19910;-81
2022/06/25 11:11:57;;;;;;;;;;;;;;;;;;5037783;28;19952;-81
2022/06/25 11:14:24;;;;;;;;;;;;;;;;;;5037902;28;20363;-84
2022/06/25 11:16:50;;;;;;;;;;;;;;;;;;5041337;28;19916;-81
2022/06/25 11:19:16;;;;;;;;;;;;;;;;;;5036801;28;20368;-83
2022/06/25 11:21:42;;;;;;;;;;;;;;;;;;5039015;28;20236;-82
2022/06/25 11:24:09;;;;;;;;;;;;;;;;;;5037480;28;20042;-82
2022/06/25 11:29:20;;;;;;;;;;;;;;;;;;5035891;28;19976;-81
2022/06/25 11:31:46;;;;;;;;;;;;;;;;;;5033185;28;19929;-82
2022/06/25 11:34:12;;;;;;;;;;;;;;;;;;5037863;28;20357;-81
2022/06/25 11:36:38;;;;;;;;;;;;;;;;;;5046176;28;19932;-82
2022/06/25 11:39:03;;;;;;;;;;;;;;;;;;5044492;28;20393;-82
2022/06/25 11:41:30;;;;;;;;;;;;;;;;;;5031931;28;19909;-81
2022/06/25 11:43:56;;;;;;;;;;;;;;;;;;5014267;28;20235;-81
2022/06/25 11:46:22;;;;;;;;;;;;;;;;;;5016434;28;19971;-81
2022/06/25 11:48:48;;;;;;;;;;;;;;;;;;5030930;28;20296;-81
2022/06/25 11:51:14;;;;;;;;;;;;;;;;;;5035175;28;19909;-81
2022/06/25 11:53:40;;;;;;;;;;;;;;;;;;5037059;28;19909;-80
2022/06/25 11:56:06;;;;;;;;;;;;;;;;;;5030791;28;19923;-84
2022/06/25 11:58:32;;;;;;;;;;;;;;;;;;5024431;28;20292;-81
2022/06/25 12:00:58;;;;;;;;;;;;;;;;;;5032362;28;19913;-78
2022/06/25 12:03:24;;;;;;;;;;;;;;;;;;5051263;28;19920;-82
2022/06/25 12:05:50;;;;;;;;;;;;;;;;;;5039545;28;19913;-81
2022/06/25 12:08:16;;;;;;;;;;;;;;;;;;5034895;28;20339;-82
2022/06/25 12:10:47;;;;;;;;;;;;;;;;;;5031993;28;20005;-82
2022/06/25 12:13:14;;;;;;;;;;;;;;;;;;5026249;28;19921;-82
2022/06/25 12:15:40;;;;;;;;;;;;;;;;;;5015325;28;19933;-82
2022/06/25 12:18:06;;;;;;;;;;;;;;;;;;5027960;28;19921;-82
2022/06/25 12:20:32;;;;;;;;;;;;;;;;;;5024016;28;20036;-83
2022/06/25 12:22:58;;;;;;;;;;;;;;;;;;5025538;28;20366;-83
2022/06/25 12:25:24;;;;;;;;;;;;;;;;;;5029451;28;19928;-82
2022/06/25 12:27:50;;;;;;;;;;;;;;;;;;5030849;28;19944;-85
2022/06/25 12:30:16;;;;;;;;;;;;;;;;;;5027674;28;19935;-82
2022/06/25 12:32:42;;;;;;;;;;;;;;;;;;5021740;28;20425;-83
2022/06/25 12:35:07;;;;;;;;;;;;;;;;;;5030480;28;19925;-83
2022/06/25 12:37:33;;;;;;;;;;;;;;;;;;5034564;28;19981;-83
2022/06/25 12:39:59;;;;;;;;;;;;;;;;;;5042233;28;20439;-82
2022/06/25 12:42:25;;;;;;;;;;;;;;;;;;5033487;28;19910;-80
2022/06/25 12:44:52;;;;;;;;;;;;;;;;;;5034664;28;20284;-81
2022/06/25 12:47:18;;;;;;;;;;;;;;;;;;5032353;28;20019;-82
2022/06/25 12:49:44;;;;;;;;;;;;;;;;;;5023349;28;19984;-82
2022/06/25 12:52:10;;;;;;;;;;;;;;;;;;5025880;28;19917;-82
2022/06/25 12:54:36;;;;;;;;;;;;;;;;;;5030568;28;19916;-82
2022/06/25 12:57:02;;;;;;;;;;;;;;;;;;5029496;28;19924;-81
2022/06/25 12:59:29;;;;;;;;;;;;;;;;;;5022178;28;19917;-81
2022/06/25 13:01:55;;;;;;;;;;;;;;;;;;5019284;28;20271;-81
2022/06/25 13:04:21;;;;;;;;;;;;;;;;;;5025922;28;19967;-80
2022/06/25 13:06:47;;;;;;;;;;;;;;;;;;5028787;28;19920;-80
2022/06/25 13:09:13;;;;;;;;;;;;;;;;;;5029595;28;20323;-79
2022/06/25 13:11:40;;;;;;;;;;;;;;;;;;5026371;28;19971;-79
2022/06/25 13:14:06;;;;;;;;;;;;;;;;;;5028513;28;20354;-79
2022/06/25 13:16:31;;;;;;;;;;;;;;;;;;5031256;28;19956;-79
2022/06/25 13:18:58;;;;;;;;;;;;;;;;;;5032201;28;19913;-79
2022/06/25 13:21:25;;;;;;;;;;;;;;;;;;5032189;28;19909;-80
2022/06/25 13:23:51;;;;;;;;;;;;;;;;;;5018640;28;20004;-79
2022/06/25 13:26:17;;;;;;;;;;;;;;;;;;5012438;28;19944;-80
2022/06/25 13:28:42;;;;;;;;;;;;;;;;;;5011608;28;19917;-79
2022/06/25 13:31:08;;;;;;;;;;;;;;;;;;5020687;28;19909;-80
2022/06/25 13:33:34;;;;;;;;;;;;;;;;;;5030286;28;19909;-82
2022/06/25 13:36:01;;;;;;;;;;;;;;;;;;5030558;28;19936;-81
2022/06/25 13:38:27;;;;;;;;;;;;;;;;;;5030210;28;19913;-80
2022/06/25 13:40:53;;;;;;;;;;;;;;;;;;5039457;28;19913;-80
2022/06/25 13:43:19;;;;;;;;;;;;;;;;;;5049878;28;19931;-80
2022/06/25 13:45:45;;;;;;;;;;;;;;;;;;5051431;28;19948;-79
2022/06/25 13:48:10;;;;;;;;;;;;;;;;;;5051028;28;19939;-80
2022/06/25 13:50:36;;;;;;;;;;;;;;;;;;5050858;28;19908;-80
2022/06/25 13:53:02;;;;;;;;;;;;;;;;;;5050852;28;19916;-80
2022/06/25 13:55:28;;;;;;;;;;;;;;;;;;5050392;28;19956;-81
2022/06/25 13:57:54;;;;;;;;;;;;;;;;;;5021116;28;19952;-81
2022/06/25 14:00:20;;;;;;;;;;;;;;;;;;5009549;28;19909;-80
2022/06/25 14:02:46;;;;;;;;;;;;;;;;;;5011584;28;20017;-80
2022/06/25 14:05:12;;;;;;;;;;;;;;;;;;5010769;28;19916;-83
2022/06/25 14:07:38;;;;;;;;;;;;;;;;;;5020943;28;19963;-81
2022/06/25 14:10:04;;;;;;;;;;;;;;;;;;5031393;28;19914;-81
2022/06/25 14:12:29;;;;;;;;;;;;;;;;;;5030007;28;19917;-80
2022/06/25 14:14:55;;;;;;;;;;;;;;;;;;5042417;28;20369;-80
2022/06/25 14:17:23;;;;;;;;;;;;;;;;;;5049340;28;19963;-80
2022/06/25 14:19:49;;;;;;;;;;;;;;;;;;5050267;28;19912;-78
2022/06/25 14:22:14;;;;;;;;;;;;;;;;;;5050905;28;19970;-78
2022/06/25 14:25:24;;;;;;;;;;;;;;;;;;5029432;28;19940;-80
2022/06/25 14:27:29;;;;;;;;;;;;;;;;;;5020238;28;20361;-78
2022/06/25 14:29:55;;;;;;;;;;;;;;;;;;5027738;28;19917;-78
2022/06/25 14:32:21;;;;;;;;;;;;;;;;;;5027815;28;19991;-78
2022/06/25 14:34:47;;;;;;;;;;;;;;;;;;5019717;28;19920;-80
2022/06/25 14:42:47;;;;;;;;;;;;;;;;;;5029289;28;19967;-79
2022/06/25 14:45:12;;;;;;;;;;;;;;;;;;5028871;28;19913;-80
2022/06/25 14:47:38;;;;;;;;;;;;;;;;;;5024989;28;19940;-80
2022/06/25 14:50:04;;;;;;;;;;;;;;;;;;5028031;28;19913;-79
2022/06/25 14:52:30;;;;;;;;;;;;;;;;;;5034204;28;19949;-80
2022/06/25 14:54:56;;;;;;;;;;;;;;;;;;5023199;28;19936;-78
2022/06/25 14:57:22;;;;;;;;;;;;;;;;;;5014952;28;19918;-78
2022/06/25 14:59:48;;;;;;;;;;;;;;;;;;5014152;28;19945;-78
2022/06/25 15:02:14;;;;;;;;;;;;;;;;;;5031760;28;19985;-78
2022/06/25 15:04:40;;;;;;;;;;;;;;;;;;5031670;28;19993;-79
2022/06/25 15:07:06;;;;;;;;;;;;;;;;;;5022054;28;19913;-79
2022/06/25 15:09:32;;;;;;;;;;;;;;;;;;5033657;28;19909;-79
2022/06/25 15:11:58;;;;;;;;;;;;;;;;;;5034499;28;19936;-79
2022/06/25 15:14:24;;;;;;;;;;;;;;;;;;5035016;28;19913;-78
2022/06/25 15:16:50;;;;;;;;;;;;;;;;;;5034810;28;19982;-78
2022/06/25 15:19:16;;;;;;;;;;;;;;;;;;5025126;28;19909;-78
2022/06/25 15:21:42;;;;;;;;;;;;;;;;;;5017096;28;20163;-78
2022/06/25 15:24:08;;;;;;;;;;;;;;;;;;5033916;28;20008;-78
2022/06/25 15:26:34;;;;;;;;;;;;;;;;;;5034251;28;19917;-78
2022/06/25 15:28:59;;;;;;;;;;;;;;;;;;5034038;28;19911;-78
2022/06/25 15:31:25;;;;;;;;;;;;;;;;;;5034692;28;20309;-79
2022/06/25 15:33:51;;;;;;;;;;;;;;;;;;5034786;28;19913;-78
2022/06/25 15:36:18;;;;;;;;;;;;;;;;;;5034935;28;19917;-78
2022/06/25 15:38:44;;;;;;;;;;;;;;;;;;5032368;28;19920;-78
2022/06/25 15:41:10;;;;;;;;;;;;;;;;;;5035258;28;19916;-78
2022/06/25 15:43:36;;;;;;;;;;;;;;;;;;5033658;28;19909;-79
2022/06/25 15:46:03;;;;;;;;;;;;;;;;;;5036240;28;19939;-79
2022/06/25 15:48:29;;;;;;;;;;;;;;;;;;5035802;28;19973;-78
2022/06/25 15:50:54;;;;;;;;;;;;;;;;;;5026297;28;19952;-78
2022/06/25 15:53:20;;;;;;;;;;;;;;;;;;5023548;28;20076;-78
2022/06/25 15:55:46;;;;;;;;;;;;;;;;;;5027524;28;19917;-78
2022/06/25 15:58:12;;;;;;;;;;;;;;;;;;5028040;28;19917;-77
2022/06/25 16:00:38;;;;;;;;;;;;;;;;;;5026827;28;20063;-80
2022/06/25 16:03:04;;;;;;;;;;;;;;;;;;5024362;28;19958;-77
2022/06/25 16:05:30;;;;;;;;;;;;;;;;;;5026622;28;20004;-80
2022/06/25 16:07:56;;;;;;;;;;;;;;;;;;5021475;28;20023;-78
2022/06/25 16:10:22;;;;;;;;;;;;;;;;;;5031917;28;19917;-79
2022/06/25 16:12:48;;;;;;;;;;;;;;;;;;5032376;28;20557;-78
2022/06/25 16:15:14;;;;;;;;;;;;;;;;;;5029408;28;20023;-78
2022/06/25 16:17:40;;;;;;;;;;;;;;;;;;5023822;28;20377;-81
2022/06/25 16:20:06;;;;;;;;;;;;;;;;;;5017801;28;20000;-78
2022/06/25 16:22:32;;;;;;;;;;;;;;;;;;5022135;28;19921;-78
2022/06/25 16:24:58;;;;;;;;;;;;;;;;;;5027340;28;20773;-79
2022/06/25 16:27:24;;;;;;;;;;;;;;;;;;5022385;28;19922;-79
2022/06/25 16:29:50;;;;;;;;;;;;;;;;;;5032370;28;19917;-79
2022/06/25 16:32:16;;;;;;;;;;;;;;;;;;5029346;28;19913;-77
2022/06/25 16:34:41;;;;;;;;;;;;;;;;;;5024371;28;19913;-77
2022/06/25 16:37:08;;;;;;;;;;;;;;;;;;5029344;28;19921;-78
2022/06/25 16:39:34;;;;;;;;;;;;;;;;;;5051875;28;20372;-77
2022/06/25 16:41:59;;;;;;;;;;;;;;;;;;5040971;28;19910;-78
2022/06/25 16:44:25;;;;;;;;;;;;;;;;;;5032752;28;19916;-77
2022/06/25 16:46:51;;;;;;;;;;;;;;;;;;5031776;28;20043;-78
2022/06/25 16:49:17;;;;;;;;;;;;;;;;;;5032036;28;20404;-80
2022/06/25 16:51:43;;;;;;;;;;;;;;;;;;5016983;28;19914;-78
2022/06/25 16:54:16;;;;;;;;;;;;;;;;;;5030640;28;19909;-79
2022/06/25 16:56:42;;;;;;;;;;;;;;;;;;5031803;28;20289;-78
2022/06/25 16:59:08;;;;;;;;;;;;;;;;;;5026098;28;19917;-78
2022/06/25 17:01:34;;;;;;;;;;;;;;;;;;5026957;28;19948;-78
2022/06/25 17:04:01;;;;;;;;;;;;;;;;;;5034358;28;19968;-80
2022/06/25 17:06:27;;;;;;;;;;;;;;;;;;5032897;28;19917;-79
2022/06/25 17:08:52;;;;;;;;;;;;;;;;;;5032315;28;20207;-79